createdAt,value
2019-02-27T00:03:47.510Z,22.44
2019-02-27T00:08:57.823Z,22.01
2019-02-27T00:14:05.190Z,22.07
2019-02-27T00:19:14.110Z,21.96
2019-02-27T00:24:23.482Z,22.57
2019-02-27T00:29:32.427Z,24.33
2019-02-27T00:34:41.371Z,23.13
2019-02-27T00:39:50.358Z,22.54
2019-02-27T00:44:59.680Z,25.24
2019-02-27T00:50:07.706Z,24.07
2019-02-27T00:55:16.573Z,22.23
2019-02-27T01:00:25.803Z,24.45
2019-02-27T01:05:34.616Z,22.14
2019-02-27T01:10:45.260Z,22.42
2019-02-27T01:15:52.397Z,25.35
2019-02-27T01:26:07.063Z,23.98
2019-02-27T01:31:15.962Z,24.27
2019-02-27T01:36:25.285Z,22.15
2019-02-27T01:41:33.614Z,22.99
2019-02-27T01:46:41.030Z,25.27
2019-02-27T01:51:50.086Z,25.43
2019-02-27T01:56:59.865Z,25.16
2019-02-27T02:02:07.448Z,24.90
2019-02-27T02:07:16.432Z,25.16
2019-02-27T02:12:25.408Z,27.61
2019-02-27T02:17:34.235Z,23.85
2019-02-27T02:22:43.171Z,24.79
2019-02-27T02:27:52.044Z,25.53
2019-02-27T02:33:01.022Z,21.45
2019-02-27T02:38:12.333Z,23.05
2019-02-27T02:43:18.404Z,23.26
2019-02-27T02:48:27.888Z,22.31
2019-02-27T02:53:36.187Z,22.37
2019-02-27T02:58:48.349Z,21.63
2019-02-27T03:03:53.554Z,21.79
2019-02-27T03:09:02.375Z,25.62
2019-02-27T03:14:16.944Z,25.68
2019-02-27T03:19:19.648Z,23.20
2019-02-27T03:24:31.142Z,23.20
2019-02-27T03:29:29.927Z,21.52
2019-02-27T03:34:47.968Z,21.25
2019-02-27T03:39:47.203Z,24.46
2019-02-27T03:44:57.159Z,20.00
2019-02-27T03:50:05.002Z,23.05
2019-02-27T03:55:13.941Z,23.11
2019-02-27T04:00:23.146Z,20.30
2019-02-27T04:05:30.683Z,23.38
2019-02-27T04:10:39.502Z,21.09
2019-02-27T04:15:53.391Z,23.57
2019-02-27T04:20:56.778Z,23.09
2019-02-27T04:26:06.602Z,21.24
2019-02-27T04:31:14.058Z,21.90
2019-02-27T04:36:23.446Z,23.12
2019-02-27T04:41:34.695Z,24.16
2019-02-27T04:46:33.593Z,21.74
2019-02-27T04:51:42.435Z,23.99
2019-02-27T04:56:51.386Z,24.01
2019-02-27T05:02:00.562Z,22.64
2019-02-27T05:07:09.508Z,26.01
2019-02-27T05:12:18.349Z,24.71
2019-02-27T05:17:27.726Z,23.40
2019-02-27T05:22:37.654Z,23.18
2019-02-27T05:27:46.591Z,23.98
2019-02-27T05:32:55.477Z,24.22
2019-02-27T05:38:06.920Z,24.87
2019-02-27T05:43:05.698Z,26.88
2019-02-27T05:48:14.634Z,26.18
2019-02-27T05:53:23.572Z,24.96
2019-02-27T05:58:34.614Z,29.18
2019-02-27T06:03:33.438Z,26.05
2019-02-27T06:08:42.358Z,29.26
2019-02-27T06:13:51.220Z,27.96
2019-02-27T06:19:00.127Z,29.94
2019-02-27T06:24:11.599Z,27.77
2019-02-27T06:29:17.507Z,29.39
2019-02-27T06:34:26.757Z,29.03
2019-02-27T06:39:35.688Z,28.89
2019-02-27T06:44:44.553Z,28.05
2019-02-27T06:49:53.838Z,28.65
2019-02-27T06:55:03.715Z,28.70
2019-02-27T07:00:12.608Z,28.98
2019-02-27T07:05:21.491Z,29.48
2019-02-27T07:10:30.471Z,30.08
2019-02-27T07:15:39.396Z,29.20
2019-02-27T07:20:50.358Z,28.99
2019-02-27T07:25:48.840Z,28.67
2019-02-27T07:30:58.149Z,31.24
2019-02-27T07:36:07.106Z,31.75
2019-02-27T07:41:20.290Z,31.12
2019-02-27T07:46:24.790Z,31.55
2019-02-27T07:51:33.905Z,31.90
2019-02-27T07:56:44.021Z,32.79
2019-02-27T08:01:43.994Z,29.55
2019-02-27T08:06:51.270Z,31.36
2019-02-27T08:12:00.429Z,32.42
2019-02-27T08:17:17.316Z,32.73
2019-02-27T08:22:20.659Z,28.91
2019-02-27T08:27:19.495Z,29.40
2019-02-27T08:32:26.978Z,30.21
2019-02-27T08:37:35.871Z,29.11
2019-02-27T08:42:44.817Z,30.40
2019-02-27T08:47:55.672Z,31.71
2019-02-27T08:53:02.191Z,29.93
2019-02-27T08:58:09.602Z,31.11
2019-02-27T09:03:20.555Z,30.76
2019-02-27T09:08:31.526Z,27.74
2019-02-27T09:13:30.624Z,31.51
2019-02-27T09:18:39.476Z,28.88
2019-02-27T09:23:48.955Z,29.86
2019-02-27T09:28:57.874Z,29.60
2019-02-27T09:34:07.116Z,32.05
2019-02-27T09:39:16.011Z,31.62
2019-02-27T09:44:26.647Z,31.34
2019-02-27T09:49:25.554Z,32.74
2019-02-27T09:54:34.851Z,33.45
2019-02-27T09:59:43.698Z,33.90
2019-02-27T10:04:53.663Z,34.22
2019-02-27T10:10:01.935Z,38.45
2019-02-27T10:15:11.059Z,38.01
2019-02-27T10:20:19.955Z,37.08
2019-02-27T10:25:31.263Z,38.56
2019-02-27T10:30:30.486Z,41.01
2019-02-27T10:35:39.439Z,40.31
2019-02-27T10:40:49.137Z,38.92
2019-02-27T10:45:57.182Z,39.94
2019-02-27T10:51:06.132Z,39.34
2019-02-27T10:56:15.094Z,40.86
2019-02-27T11:01:24.244Z,40.06
2019-02-27T11:06:37.655Z,41.26
2019-02-27T11:11:42.923Z,39.73
2019-02-27T11:16:54.151Z,43.16
2019-02-27T11:21:53.505Z,39.39
2019-02-27T11:27:03.430Z,39.88
2019-02-27T11:32:12.144Z,38.42
2019-02-27T11:37:21.150Z,38.24
2019-02-27T11:42:31.999Z,43.68
2019-02-27T11:47:38.859Z,40.31
2019-02-27T11:52:49.323Z,45.26
2019-02-27T11:57:48.191Z,45.42
2019-02-27T12:02:57.070Z,45.21
2019-02-27T12:08:06.006Z,43.76
2019-02-27T12:13:14.967Z,49.96
2019-02-27T12:18:23.903Z,48.99
2019-02-27T12:23:33.920Z,45.79
2019-02-27T12:28:42.877Z,45.77
2019-02-27T12:33:51.938Z,46.23
2019-02-27T12:39:01.231Z,47.04
2019-02-27T12:44:10.085Z,47.17
2019-02-27T12:49:20.060Z,46.59
2019-02-27T12:54:27.517Z,46.40
2019-02-27T12:59:36.418Z,47.68
2019-02-27T13:04:45.290Z,44.45
2019-02-27T13:09:58.468Z,44.70
2019-02-27T13:15:06.642Z,39.03
2019-02-27T13:20:11.711Z,41.77
2019-02-27T13:25:18.123Z,38.01
2019-02-27T13:30:27.044Z,38.85
2019-02-27T13:35:36.055Z,35.66
2019-02-27T13:40:46.048Z,38.56
2019-02-27T13:45:47.299Z,34.56
2019-02-27T13:50:53.863Z,39.40
2019-02-27T13:56:01.276Z,41.35
2019-02-27T14:01:12.084Z,43.37
2019-02-27T14:06:18.686Z,41.85
2019-02-27T14:11:27.599Z,36.65
2019-02-27T14:16:36.500Z,37.71
2019-02-27T14:21:45.449Z,37.00
2019-02-27T14:26:54.370Z,33.87
2019-02-27T14:32:03.334Z,34.31
2019-02-27T14:37:16.248Z,33.85
2019-02-27T14:42:21.645Z,32.31
2019-02-27T14:47:30.530Z,38.86
2019-02-27T14:52:39.511Z,41.57
2019-02-27T14:57:51.197Z,40.22
2019-02-27T15:02:56.992Z,43.70
2019-02-27T15:08:04.454Z,41.32
2019-02-27T15:13:13.368Z,43.06
2019-02-27T15:18:23.081Z,42.10
2019-02-27T15:23:30.609Z,42.71
2019-02-27T15:28:41.651Z,53.76
2019-02-27T15:33:48.742Z,41.39
2019-02-27T15:38:58.139Z,43.30
2019-02-27T15:44:07.103Z,45.27
2019-02-27T15:49:16.053Z,44.37
2019-02-27T15:54:24.930Z,49.96
2019-02-27T15:59:34.330Z,44.29
2019-02-27T16:04:42.272Z,44.93
2019-02-27T16:09:51.204Z,45.94
2019-02-27T16:15:00.436Z,43.43
2019-02-27T16:20:09.467Z,42.58
2019-02-27T16:25:19.902Z,44.16
2019-02-27T16:30:31.127Z,43.10
2019-02-27T16:35:35.187Z,49.91
2019-02-27T16:40:44.315Z,44.15
2019-02-27T16:45:53.384Z,43.16
2019-02-27T16:51:02.331Z,40.23
2019-02-27T16:56:12.839Z,38.58
2019-02-27T17:01:20.431Z,41.09
2019-02-27T17:06:29.727Z,45.61
2019-02-27T17:11:39.024Z,40.61
2019-02-27T17:16:47.935Z,42.41
2019-02-27T17:21:58.762Z,37.87
2019-02-27T17:27:05.258Z,37.50
2019-02-27T17:32:14.426Z,42.10
2019-02-27T17:37:23.812Z,41.12
2019-02-27T17:42:32.659Z,37.37
2019-02-27T17:47:42.159Z,38.64
2019-02-27T17:52:52.205Z,37.49
2019-02-27T17:57:51.294Z,36.58
2019-02-27T18:03:00.315Z,38.29
2019-02-27T18:08:09.335Z,36.82
2019-02-27T18:13:18.358Z,36.63
2019-02-27T18:18:27.270Z,33.59
2019-02-27T18:23:36.254Z,34.22
2019-02-27T18:28:45.335Z,30.62
2019-02-27T18:33:54.271Z,31.42
2019-02-27T18:39:03.385Z,31.22
2019-02-27T18:44:13.012Z,36.92
2019-02-27T18:49:20.383Z,38.22
2019-02-27T18:54:29.404Z,37.87
2019-02-27T18:59:38.909Z,38.96
2019-02-27T19:04:47.747Z,39.44
2019-02-27T19:09:56.571Z,42.15
2019-02-27T19:15:11.025Z,38.08
2019-02-27T19:20:14.200Z,42.98
2019-02-27T19:25:23.366Z,37.81
2019-02-27T19:30:35.376Z,40.39
2019-02-27T19:35:34.191Z,37.26
2019-02-27T19:40:41.639Z,39.70
2019-02-27T19:45:50.995Z,36.95
2019-02-27T19:51:00.259Z,37.81
2019-02-27T19:56:09.141Z,40.25
2019-02-27T20:01:18.393Z,35.91
2019-02-27T20:57:39.538Z,55.43
2019-02-27T21:02:47.248Z,56.57
2019-02-27T21:08:01.949Z,57.71
2019-02-27T21:12:57.889Z,56.51
2019-02-27T21:18:06.756Z,62.33
2019-02-27T21:23:15.597Z,53.85
2019-02-27T21:28:24.410Z,54.94
2019-02-27T21:33:33.342Z,57.83
2019-02-27T21:38:42.306Z,61.39
2019-02-27T21:43:51.348Z,57.01
2019-02-27T21:49:00.372Z,55.48
2019-02-27T21:54:09.243Z,58.57
2019-02-27T21:59:18.063Z,56.41
2019-02-27T22:04:26.946Z,57.57
2019-02-27T22:09:35.940Z,59.17
2019-02-27T22:14:45.255Z,59.05
2019-02-27T22:19:54.752Z,53.89
2019-02-27T22:25:02.567Z,58.78
2019-02-27T22:30:11.376Z,52.13
2019-02-27T22:35:20.365Z,53.48
2019-02-27T22:40:29.395Z,54.10
2019-02-27T22:45:40.491Z,49.76
2019-02-27T22:50:46.715Z,51.20
2019-02-27T22:55:55.596Z,49.63
2019-02-27T23:01:04.430Z,52.15
2019-02-27T23:06:13.342Z,49.15
2019-02-27T23:11:22.182Z,49.25
2019-02-27T23:16:31.074Z,51.21
2019-02-27T23:21:39.957Z,49.78
2019-02-27T23:26:54.401Z,54.54
2019-02-27T23:31:57.170Z,47.30
2019-02-27T23:37:06.031Z,53.26
2019-02-27T23:42:14.854Z,59.52
2019-02-27T23:47:23.727Z,55.25
2019-02-27T23:52:32.631Z,54.87
2019-02-27T23:57:41.484Z,54.51
